Terminal Aerodrome Forecast
Issued by NWS

Home | Current Version | Previous Version | Text Only | Print | Product List | Glossary On
Versions: 1 2 3 4 5 6 7 8 9 10 11 12 13 14 15 16 17 18 19 20 21 22 23 24 25 26
000
FTUS43 KCYS 181700
TAFAIA
TAF
KAIA 181720Z 1818/1918 17012KT P6SM SKC
     FM181900 15015G23KT P6SM FEW200
     FM190100 15011KT P6SM SKC
     FM190600 18012KT P6SM SKC=

USA.gov is the U.S. government's official web portal to all federal, state and local government web resources and services.